Time;durP1;ratioP1;P1;durP2;ratioP2;P2;SDS_P1;SDS_P2;PMS_P1;PMS_P2;Temp;Humidity;BMP_temperature;BMP_pressure;BME280_temperature;BME280_humidity;BME280_pressure;Samples;Min_cycle;Max_cycle;Signal;HPM_P1;HPM_P2
2022/05/09 00:00:14;;;;;;;;;;;7.20;99.90;;;;;;5090118;28;19960;-47
2022/05/09 00:02:39;;;;;;;;;;;7.20;99.90;;;;;;5091840;28;19927;-47
2022/05/09 00:05:06;;;;;;;;;;;7.10;99.90;;;;;;5094422;28;19977;-48
2022/05/09 00:07:32;;;;;;;;;;;7.10;99.90;;;;;;5094505;28;19977;-47
2022/05/09 00:09:57;;;;;;;;;;;7.10;99.90;;;;;;5092415;28;19923;-52
2022/05/09 00:12:23;;;;;;;;;;;7.00;99.90;;;;;;5086794;28;20290;-46
2022/05/09 00:14:48;;;;;;;;;;;7.00;99.90;;;;;;5090652;28;19924;-47
2022/05/09 00:17:13;;;;;;;;;;;7.00;99.90;;;;;;5092336;28;19924;-50
2022/05/09 00:19:39;;;;;;;;;;;7.00;99.90;;;;;;5091198;28;19954;-46
2022/05/09 00:22:05;;;;;;;;;;;6.90;99.90;;;;;;5075752;28;19928;-47
2022/05/09 00:24:30;;;;;;;;;;;6.90;99.90;;;;;;5086551;28;19924;-48
2022/05/09 00:26:57;;;;;;;;;;;6.90;99.90;;;;;;5089884;28;19963;-46
2022/05/09 00:29:23;;;;;;;;;;;6.90;99.90;;;;;;5094106;28;20316;-49
2022/05/09 00:31:49;;;;;;;;;;;6.90;99.90;;;;;;5092545;28;19957;-48
2022/05/09 00:34:19;;;;;;;;;;;6.90;99.90;;;;;;5089685;28;19943;-47
2022/05/09 00:36:45;;;;;;;;;;;6.80;99.90;;;;;;5088397;28;19932;-47
2022/05/09 00:39:11;;;;;;;;;;;6.80;99.90;;;;;;5085835;28;19924;-47
2022/05/09 00:41:39;;;;;;;;;;;6.80;99.90;;;;;;5090484;28;19970;-47
2022/05/09 00:44:07;;;;;;;;;;;6.80;99.90;;;;;;5093002;28;19924;-48
2022/05/09 00:46:33;;;;;;;;;;;6.80;99.90;;;;;;5094942;28;19924;-47
2022/05/09 00:49:03;;;;;;;;;;;6.70;99.90;;;;;;5091684;28;20018;-46
2022/05/09 00:51:29;;;;;;;;;;;6.70;99.90;;;;;;5085407;28;19924;-46
2022/05/09 00:53:56;;;;;;;;;;;6.70;99.90;;;;;;5082956;28;19971;-47
2022/05/09 00:56:24;;;;;;;;;;;6.70;99.90;;;;;;5085812;28;19934;-46
2022/05/09 00:58:54;;;;;;;;;;;6.70;99.90;;;;;;5090040;28;20230;-48
2022/05/09 01:01:21;;;;;;;;;;;6.60;99.90;;;;;;5088453;28;20019;-50
2022/05/09 01:03:46;;;;;;;;;;;;;;;;;;5092335;28;20341;-47
2022/05/09 01:06:12;;;;;;;;;;;6.60;99.90;;;;;;5084958;28;20003;-47
2022/05/09 01:08:38;;;;;;;;;;;6.60;99.90;;;;;;5092820;28;20115;-46
2022/05/09 01:11:06;;;;;;;;;;;6.50;99.90;;;;;;5091354;28;19932;-47
2022/05/09 01:13:34;;;;;;;;;;;6.50;99.90;;;;;;5093926;28;20390;-45
2022/05/09 01:16:02;;;;;;;;;;;6.50;99.90;;;;;;5093023;28;19927;-47
2022/05/09 01:18:28;;;;;;;;;;;6.50;99.90;;;;;;5093470;28;19931;-46
2022/05/09 01:20:53;;;;;;;;;;;6.40;99.90;;;;;;5093404;28;19924;-48
2022/05/09 01:23:19;;;;;;;;;;;6.50;99.90;;;;;;5088150;28;20398;-46
2022/05/09 01:25:44;;;;;;;;;;;6.40;99.90;;;;;;5088163;28;19947;-47
2022/05/09 01:28:11;;;;;;;;;;;6.40;99.90;;;;;;5092245;28;19930;-48
2022/05/09 01:30:44;;;;;;;;;;;6.40;99.90;;;;;;5093480;28;19924;-48
2022/05/09 01:33:10;;;;;;;;;;;6.40;99.90;;;;;;5091664;28;20409;-48
2022/05/09 01:35:42;;;;;;;;;;;6.30;99.90;;;;;;5086970;28;19924;-51
2022/05/09 01:38:10;;;;;;;;;;;6.30;99.90;;;;;;5092167;28;19924;-47
2022/05/09 01:40:35;;;;;;;;;;;6.30;99.90;;;;;;5087854;28;20023;-47
2022/05/09 01:43:01;;;;;;;;;;;6.30;99.90;;;;;;5092896;28;20411;-47
2022/05/09 01:45:26;;;;;;;;;;;6.30;99.90;;;;;;5092713;28;20015;-47
2022/05/09 01:50:36;;;;;;;;;;;6.30;99.90;;;;;;5091169;28;19986;-46
2022/05/09 01:53:02;;;;;;;;;;;6.20;99.90;;;;;;5092308;28;19928;-48
2022/05/09 01:55:27;;;;;;;;;;;6.20;99.90;;;;;;5069619;28;19924;-47
2022/05/09 01:57:53;;;;;;;;;;;6.20;99.90;;;;;;5092100;28;19924;-47
2022/05/09 02:00:18;;;;;;;;;;;6.10;99.90;;;;;;5093022;28;20069;-49
2022/05/09 02:02:44;;;;;;;;;;;6.10;99.90;;;;;;5090334;28;20358;-47
2022/05/09 02:05:10;;;;;;;;;;;6.10;99.90;;;;;;5088342;28;20023;-48
2022/05/09 02:07:35;;;;;;;;;;;6.10;99.90;;;;;;5082122;28;20018;-48
2022/05/09 02:10:02;;;;;;;;;;;6.10;99.90;;;;;;5089562;28;19931;-51
2022/05/09 02:12:28;;;;;;;;;;;6.10;99.90;;;;;;5092172;28;19948;-49
2022/05/09 02:14:53;;;;;;;;;;;6.10;99.90;;;;;;5073009;28;19932;-51
2022/05/09 02:17:19;;;;;;;;;;;6.10;99.90;;;;;;5091676;28;19924;-50
2022/05/09 02:19:45;;;;;;;;;;;6.00;99.90;;;;;;5088579;28;19924;-49
2022/05/09 02:22:11;;;;;;;;;;;6.00;99.90;;;;;;5079811;28;20345;-48
2022/05/09 02:24:39;;;;;;;;;;;6.00;99.90;;;;;;5067622;28;19928;-46
2022/05/09 02:27:05;;;;;;;;;;;6.00;99.90;;;;;;5087471;28;20259;-46
2022/05/09 02:29:31;;;;;;;;;;;6.00;99.90;;;;;;5089549;28;19932;-47
2022/05/09 02:31:57;;;;;;;;;;;6.00;99.90;;;;;;5091184;28;19947;-50
2022/05/09 02:34:23;;;;;;;;;;;6.00;99.90;;;;;;5086091;28;19977;-46
2022/05/09 02:36:48;;;;;;;;;;;5.90;99.90;;;;;;5091767;28;19928;-45
2022/05/09 02:39:14;;;;;;;;;;;5.90;99.90;;;;;;5091279;28;19983;-46
2022/05/09 02:41:39;;;;;;;;;;;6.00;99.90;;;;;;5083070;28;19983;-51
2022/05/09 02:44:05;;;;;;;;;;;6.00;99.90;;;;;;5091971;28;20003;-45
2022/05/09 02:46:30;;;;;;;;;;;5.90;99.90;;;;;;5086452;28;19964;-45
2022/05/09 02:48:59;;;;;;;;;;;5.90;99.90;;;;;;5088561;28;20000;-45
2022/05/09 02:51:26;;;;;;;;;;;5.80;99.90;;;;;;5091252;28;19924;-45
2022/05/09 02:53:51;;;;;;;;;;;5.80;99.90;;;;;;5088000;28;19978;-47
2022/05/09 02:56:17;;;;;;;;;;;5.80;99.90;;;;;;5083686;28;19924;-45
2022/05/09 02:58:42;;;;;;;;;;;5.80;99.90;;;;;;5081603;28;19948;-46
2022/05/09 03:01:08;;;;;;;;;;;5.80;99.90;;;;;;5090532;28;19931;-45
2022/05/09 03:06:17;;;;;;;;;;;5.80;99.90;;;;;;5087885;28;20317;-46
2022/05/09 03:08:43;;;;;;;;;;;5.80;99.90;;;;;;5091830;28;19924;-45
2022/05/09 03:11:08;;;;;;;;;;;5.80;99.90;;;;;;5082152;28;20309;-46
2022/05/09 03:13:34;;;;;;;;;;;5.70;99.90;;;;;;5083966;28;19970;-46
2022/05/09 03:16:01;;;;;;;;;;;5.70;99.90;;;;;;5090982;28;20380;-45
2022/05/09 03:18:27;;;;;;;;;;;5.70;99.90;;;;;;5086384;28;20315;-48
2022/05/09 03:20:53;;;;;;;;;;;5.70;99.90;;;;;;5091962;28;20025;-50
2022/05/09 03:23:18;;;;;;;;;;;5.70;99.90;;;;;;5084800;28;19924;-47
2022/05/09 03:25:44;;;;;;;;;;;5.70;99.90;;;;;;5080259;28;19931;-47
2022/05/09 03:28:12;;;;;;;;;;;5.70;99.90;;;;;;5075615;28;20359;-49
2022/05/09 03:30:37;;;;;;;;;;;5.60;99.90;;;;;;5081893;28;20370;-47
2022/05/09 03:33:03;;;;;;;;;;;5.60;99.90;;;;;;5070307;28;19931;-46
2022/05/09 03:35:30;;;;;;;;;;;5.60;99.90;;;;;;5092454;28;20334;-46
2022/05/09 03:37:55;;;;;;;;;;;5.60;99.90;;;;;;5093537;28;20015;-50
2022/05/09 03:40:21;;;;;;;;;;;5.60;99.90;;;;;;5095325;28;19978;-49
2022/05/09 03:42:47;;;;;;;;;;;5.60;99.90;;;;;;5095007;28;20011;-47
2022/05/09 03:45:13;;;;;;;;;;;5.60;99.90;;;;;;5086103;28;19960;-46
2022/05/09 03:47:38;;;;;;;;;;;5.60;99.90;;;;;;5076529;28;19924;-46
2022/05/09 03:50:04;;;;;;;;;;;5.60;99.90;;;;;;5085005;28;19967;-46
2022/05/09 03:52:30;;;;;;;;;;;5.60;99.90;;;;;;5087112;28;19930;-46
2022/05/09 03:54:57;;;;;;;;;;;5.60;99.90;;;;;;5093879;28;19986;-47
2022/05/09 03:57:23;;;;;;;;;;;5.60;99.90;;;;;;5093931;28;19934;-46
2022/05/09 03:59:48;;;;;;;;;;;5.60;99.90;;;;;;5094217;28;20003;-48
2022/05/09 04:02:14;;;;;;;;;;;5.60;99.90;;;;;;5092964;28;20368;-48
2022/05/09 04:04:39;;;;;;;;;;;5.60;99.90;;;;;;5073495;28;19924;-45
2022/05/09 04:07:05;;;;;;;;;;;5.60;99.90;;;;;;5092221;28;19962;-47
2022/05/09 04:09:31;;;;;;;;;;;5.60;99.90;;;;;;5075336;28;19924;-46
2022/05/09 04:11:56;;;;;;;;;;;5.70;99.90;;;;;;5094653;28;19931;-47
2022/05/09 04:17:06;;;;;;;;;;;5.70;99.90;;;;;;5080562;28;19924;-45
2022/05/09 04:19:32;;;;;;;;;;;5.70;99.90;;;;;;5093552;28;19928;-48
2022/05/09 04:21:57;;;;;;;;;;;5.80;99.90;;;;;;5094573;28;19973;-46
2022/05/09 04:24:23;;;;;;;;;;;5.90;99.90;;;;;;5091143;28;19924;-47
2022/05/09 04:26:49;;;;;;;;;;;5.80;99.90;;;;;;5095142;28;19924;-46
2022/05/09 04:29:14;;;;;;;;;;;5.90;99.90;;;;;;5092337;28;20412;-47
2022/05/09 04:31:40;;;;;;;;;;;5.90;99.90;;;;;;5093105;28;19931;-46
2022/05/09 04:34:05;;;;;;;;;;;6.00;99.90;;;;;;5093644;28;20538;-51
2022/05/09 04:36:32;;;;;;;;;;;6.00;99.90;;;;;;5093393;28;20041;-48
2022/05/09 04:38:57;;;;;;;;;;;6.10;99.90;;;;;;5074621;28;19924;-50
2022/05/09 04:41:24;;;;;;;;;;;6.10;99.90;;;;;;5092569;28;19928;-48
2022/05/09 04:43:49;;;;;;;;;;;6.40;99.90;;;;;;5094218;28;19989;-47
2022/05/09 04:46:15;;;;;;;;;;;6.90;99.90;;;;;;5081054;28;20387;-49
2022/05/09 04:48:42;;;;;;;;;;;7.60;99.90;;;;;;5091928;28;19931;-47
2022/05/09 04:51:07;;;;;;;;;;;8.60;99.90;;;;;;5072815;28;19932;-48
2022/05/09 04:53:33;;;;;;;;;;;9.30;99.90;;;;;;5090449;28;20350;-47
2022/05/09 04:55:59;;;;;;;;;;;9.20;99.90;;;;;;5093603;28;19993;-45
2022/05/09 04:58:25;;;;;;;;;;;9.80;99.90;;;;;;5075738;28;19924;-46
2022/05/09 05:00:51;;;;;;;;;;;10.40;99.90;;;;;;5093613;28;19931;-50
2022/05/09 05:03:16;;;;;;;;;;;11.10;99.90;;;;;;5088774;28;19932;-46
2022/05/09 05:05:42;;;;;;;;;;;11.30;99.90;;;;;;5085601;28;19978;-46
2022/05/09 05:08:08;;;;;;;;;;;11.50;99.90;;;;;;5088890;28;19924;-46
2022/05/09 05:10:34;;;;;;;;;;;11.70;99.90;;;;;;5093198;28;20336;-49
2022/05/09 05:13:02;;;;;;;;;;;12.00;99.90;;;;;;5088973;28;19924;-47
2022/05/09 05:15:28;;;;;;;;;;;12.00;99.90;;;;;;5091330;28;19924;-46
2022/05/09 05:17:54;;;;;;;;;;;12.50;99.90;;;;;;5092839;28;19931;-47
2022/05/09 05:20:19;;;;;;;;;;;12.70;99.90;;;;;;5091631;28;20250;-48
2022/05/09 05:22:47;;;;;;;;;;;13.20;99.90;;;;;;5090853;28;19932;-49
2022/05/09 05:25:14;;;;;;;;;;;13.70;99.90;;;;;;5086812;28;20022;-51
2022/05/09 05:27:39;;;;;;;;;;;13.80;99.90;;;;;;5093332;28;19985;-47
2022/05/09 05:30:05;;;;;;;;;;;14.20;99.90;;;;;;5093102;28;20014;-48
2022/05/09 05:32:34;;;;;;;;;;;14.40;99.90;;;;;;5090486;28;19925;-49
2022/05/09 05:35:00;;;;;;;;;;;14.40;99.90;;;;;;5090839;28;19924;-47
2022/05/09 05:37:26;;;;;;;;;;;14.80;99.90;;;;;;5084067;28;20042;-47
2022/05/09 05:39:52;;;;;;;;;;;15.20;99.90;;;;;;5088171;28;20356;-47
2022/05/09 05:42:18;;;;;;;;;;;15.40;99.90;;;;;;5083178;28;21099;-48
2022/05/09 05:44:44;;;;;;;;;;;15.10;99.90;;;;;;5087774;28;19925;-48
2022/05/09 05:47:10;;;;;;;;;;;15.80;99.90;;;;;;5092512;28;19931;-49
2022/05/09 05:49:36;;;;;;;;;;;16.10;99.90;;;;;;5085513;28;20032;-47
2022/05/09 05:52:03;;;;;;;;;;;16.20;99.90;;;;;;5091674;28;19959;-47
2022/05/09 05:54:34;;;;;;;;;;;16.50;99.90;;;;;;5089349;28;19923;-46
2022/05/09 05:57:01;;;;;;;;;;;16.40;99.90;;;;;;5088523;28;19940;-47
2022/05/09 05:59:26;;;;;;;;;;;16.20;99.90;;;;;;5089613;28;19951;-48
2022/05/09 06:01:52;;;;;;;;;;;16.20;99.90;;;;;;5082007;28;20331;-47
2022/05/09 06:04:18;;;;;;;;;;;15.80;99.90;;;;;;5085964;28;20246;-47
2022/05/09 06:06:43;;;;;;;;;;;15.90;99.90;;;;;;5087104;28;19954;-49
2022/05/09 06:09:10;;;;;;;;;;;16.30;99.90;;;;;;5082834;28;19944;-47
2022/05/09 06:11:35;;;;;;;;;;;17.10;99.90;;;;;;5090108;28;19949;-47
2022/05/09 06:14:03;;;;;;;;;;;17.40;99.90;;;;;;5088924;28;19927;-49
2022/05/09 06:16:29;;;;;;;;;;;17.70;99.90;;;;;;5088948;28;20378;-48
2022/05/09 06:18:54;;;;;;;;;;;17.90;99.10;;;;;;5089057;28;19931;-51
2022/05/09 06:21:21;;;;;;;;;;;17.30;96.30;;;;;;5089334;28;19924;-48
2022/05/09 06:23:46;;;;;;;;;;;17.70;96.40;;;;;;5089411;28;19948;-50
2022/05/09 06:26:14;;;;;;;;;;;18.00;99.40;;;;;;5089518;28;20030;-46
2022/05/09 06:28:40;;;;;;;;;;;18.30;94.60;;;;;;5080453;28;19975;-50
2022/05/09 06:31:06;;;;;;;;;;;18.40;98.10;;;;;;5085353;28;20000;-49
2022/05/09 06:33:31;;;;;;;;;;;17.90;95.30;;;;;;5084945;28;19936;-48
2022/05/09 06:35:58;;;;;;;;;;;18.30;97.80;;;;;;5086470;28;19932;-52
2022/05/09 06:38:27;;;;;;;;;;;18.70;95.90;;;;;;5084894;28;20284;-49
2022/05/09 06:40:53;;;;;;;;;;;18.70;96.80;;;;;;5087174;28;19936;-50
2022/05/09 06:43:19;;;;;;;;;;;18.50;93.50;;;;;;5086318;28;19924;-48
2022/05/09 06:45:45;;;;;;;;;;;18.80;94.10;;;;;;5086516;28;19935;-52
2022/05/09 06:48:11;;;;;;;;;;;18.40;93.20;;;;;;5084108;28;19935;-52
2022/05/09 06:50:37;;;;;;;;;;;18.40;93.40;;;;;;5070226;28;20022;-48
2022/05/09 06:53:03;;;;;;;;;;;18.50;94.20;;;;;;5085695;28;19924;-47
2022/05/09 06:55:29;;;;;;;;;;;18.00;93.40;;;;;;5086739;28;19930;-48
2022/05/09 06:57:54;;;;;;;;;;;18.40;93.20;;;;;;5083627;28;19935;-48
2022/05/09 07:00:21;;;;;;;;;;;18.40;94.10;;;;;;5065904;28;19932;-52
2022/05/09 07:02:47;;;;;;;;;;;18.40;93.40;;;;;;5080729;28;19932;-49
2022/05/09 07:05:15;;;;;;;;;;;17.90;93.80;;;;;;5067003;28;19924;-47
2022/05/09 07:07:41;;;;;;;;;;;18.30;94.50;;;;;;5082210;28;19924;-52
2022/05/09 07:10:06;;;;;;;;;;;18.10;94.20;;;;;;5084880;28;20395;-48
2022/05/09 07:12:39;;;;;;;;;;;18.80;94.90;;;;;;5086030;28;20306;-47
2022/05/09 07:15:05;;;;;;;;;;;18.60;93.80;;;;;;5089185;28;20097;-50
2022/05/09 07:17:30;;;;;;;;;;;18.40;94.50;;;;;;5088671;28;20378;-52
2022/05/09 07:19:56;;;;;;;;;;;18.30;95.20;;;;;;5086379;28;19931;-50
2022/05/09 07:22:21;;;;;;;;;;;18.40;95.00;;;;;;5087750;28;20021;-52
2022/05/09 07:24:47;;;;;;;;;;;18.00;95.00;;;;;;5089952;28;19924;-49
2022/05/09 07:27:12;;;;;;;;;;;18.20;95.60;;;;;;5087266;28;20019;-52
2022/05/09 07:29:38;;;;;;;;;;;17.90;96.30;;;;;;5088911;28;19924;-48
2022/05/09 07:32:03;;;;;;;;;;;17.60;97.30;;;;;;5084917;28;19924;-47
2022/05/09 07:34:29;;;;;;;;;;;16.40;99.90;;;;;;5070511;28;19970;-50
2022/05/09 07:36:54;;;;;;;;;;;16.30;99.90;;;;;;5082966;28;20380;-50
2022/05/09 07:39:20;;;;;;;;;;;16.10;99.90;;;;;;5080315;28;19932;-51
2022/05/09 07:41:45;;;;;;;;;;;15.80;99.90;;;;;;5082271;28;19927;-49
2022/05/09 07:44:11;;;;;;;;;;;16.10;99.90;;;;;;5089905;28;19931;-50
2022/05/09 07:46:36;;;;;;;;;;;15.90;99.90;;;;;;5083516;28;20022;-51
2022/05/09 07:49:02;;;;;;;;;;;16.20;99.90;;;;;;5086086;28;19966;-48
2022/05/09 07:51:27;;;;;;;;;;;16.10;99.90;;;;;;5083684;28;20016;-50
2022/05/09 07:53:53;;;;;;;;;;;16.00;99.90;;;;;;5086500;28;20013;-50
2022/05/09 07:56:18;;;;;;;;;;;16.30;99.90;;;;;;5083928;28;19932;-49
2022/05/09 07:58:44;;;;;;;;;;;16.30;99.90;;;;;;5085299;28;20283;-50
2022/05/09 08:01:09;;;;;;;;;;;16.20;99.90;;;;;;5085182;28;19931;-51
2022/05/09 08:03:37;;;;;;;;;;;16.30;99.90;;;;;;5085489;28;19948;-52
2022/05/09 08:06:02;;;;;;;;;;;16.60;99.90;;;;;;5085337;28;20389;-51
2022/05/09 08:08:29;;;;;;;;;;;16.80;99.90;;;;;;5090342;28;19928;-52
2022/05/09 08:10:55;;;;;;;;;;;17.10;99.90;;;;;;5073038;28;19932;-50
2022/05/09 08:13:20;;;;;;;;;;;17.30;99.90;;;;;;5072251;28;20296;-49
2022/05/09 08:15:46;;;;;;;;;;;17.40;99.20;;;;;;5087191;28;19930;-50
2022/05/09 08:18:13;;;;;;;;;;;17.40;98.40;;;;;;5081527;28;19928;-48
2022/05/09 08:20:40;;;;;;;;;;;17.40;94.20;;;;;;5088904;28;19924;-50
2022/05/09 08:23:07;;;;;;;;;;;17.30;95.90;;;;;;5088775;28;19939;-51
2022/05/09 08:25:36;;;;;;;;;;;17.60;96.20;;;;;;5089321;28;20016;-49
2022/05/09 08:28:02;;;;;;;;;;;17.90;95.50;;;;;;5084302;28;19924;-52
2022/05/09 08:30:32;;;;;;;;;;;17.80;93.70;;;;;;5089406;28;19960;-51
2022/05/09 08:32:58;;;;;;;;;;;18.10;94.70;;;;;;5085489;28;19931;-50
2022/05/09 08:35:24;;;;;;;;;;;18.10;90.40;;;;;;5089907;28;19924;-46
2022/05/09 08:37:49;;;;;;;;;;;18.10;90.50;;;;;;5087813;28;19928;-52
2022/05/09 08:40:17;;;;;;;;;;;18.20;86.90;;;;;;5088882;28;19985;-53
2022/05/09 08:42:48;;;;;;;;;;;18.40;88.20;;;;;;5090956;28;20366;-52
2022/05/09 08:45:31;;;;;;;;;;;18.40;83.40;;;;;;5087786;28;20297;-47
2022/05/09 08:48:03;;;;;;;;;;;18.50;87.90;;;;;;5088633;28;20424;-52
2022/05/09 08:50:29;;;;;;;;;;;18.80;81.90;;;;;;5090889;28;19924;-52
2022/05/09 08:53:02;;;;;;;;;;;18.70;79.80;;;;;;5090703;28;19993;-48
2022/05/09 08:55:37;;;;;;;;;;;18.40;77.30;;;;;;5088548;28;20012;-48
2022/05/09 08:58:22;;;;;;;;;;;18.60;76.60;;;;;;5088890;28;20449;-51
2022/05/09 09:00:49;;;;;;;;;;;18.90;75.70;;;;;;5069852;28;19931;-51
2022/05/09 09:03:31;;;;;;;;;;;18.70;72.50;;;;;;5056594;28;19924;-49
2022/05/09 09:06:00;;;;;;;;;;;18.80;74.20;;;;;;5088171;28;19924;-51
2022/05/09 09:08:28;;;;;;;;;;;18.90;73.10;;;;;;5088321;28;19973;-48
2022/05/09 09:11:16;;;;;;;;;;;19.10;76.00;;;;;;5090469;28;19924;-50
2022/05/09 09:13:48;;;;;;;;;;;19.30;71.50;;;;;;5086996;28;20014;-48
2022/05/09 09:16:19;;;;;;;;;;;19.60;74.00;;;;;;5086492;28;19932;-50
2022/05/09 09:19:04;;;;;;;;;;;19.60;71.90;;;;;;5089686;28;20040;-49
2022/05/09 09:21:44;;;;;;;;;;;19.60;68.90;;;;;;5087619;28;20309;-49
2022/05/09 09:24:39;;;;;;;;;;;19.70;66.50;;;;;;5090168;28;19978;-48
2022/05/09 09:27:14;;;;;;;;;;;19.70;65.80;;;;;;5074534;28;20328;-49
2022/05/09 09:29:41;;;;;;;;;;;20.00;69.70;;;;;;5088510;28;19982;-49
2022/05/09 09:32:09;;;;;;;;;;;20.30;69.90;;;;;;5083850;28;19932;-48
2022/05/09 09:34:34;;;;;;;;;;;20.40;64.30;;;;;;5086922;28;20365;-49
2022/05/09 09:37:05;;;;;;;;;;;20.40;66.80;;;;;;5087463;28;19930;-48
2022/05/09 09:39:31;;;;;;;;;;;20.40;63.90;;;;;;5088664;28;19924;-51
2022/05/09 09:41:56;;;;;;;;;;;20.60;62.70;;;;;;5088637;28;19924;-49
2022/05/09 09:44:24;;;;;;;;;;;20.60;60.70;;;;;;5088747;28;19977;-48
2022/05/09 09:47:04;;;;;;;;;;;20.40;59.20;;;;;;5085422;28;19993;-52
2022/05/09 09:49:30;;;;;;;;;;;20.60;62.50;;;;;;5087287;28;19932;-51
2022/05/09 09:51:57;;;;;;;;;;;20.70;61.40;;;;;;5065487;28;19924;-49
2022/05/09 09:54:27;;;;;;;;;;;20.80;60.50;;;;;;5087027;28;19924;-52
2022/05/09 09:56:53;;;;;;;;;;;20.70;59.80;;;;;;5087199;28;20007;-48
2022/05/09 09:59:21;;;;;;;;;;;21.00;60.40;;;;;;5087751;28;20015;-51
2022/05/09 10:02:10;;;;;;;;;;;21.20;61.50;;;;;;5071217;28;20440;-50
2022/05/09 10:04:35;;;;;;;;;;;21.30;60.50;;;;;;5073049;28;19981;-51
2022/05/09 10:07:06;;;;;;;;;;;21.70;62.70;;;;;;5092483;28;19924;-52
2022/05/09 10:09:42;;;;;;;;;;;21.70;58.00;;;;;;5090898;28;19931;-52
2022/05/09 10:12:27;;;;;;;;;;;21.70;57.10;;;;;;5082756;28;20400;-51
2022/05/09 10:14:53;;;;;;;;;;;21.70;56.10;;;;;;5091818;28;19975;-52
2022/05/09 10:17:25;;;;;;;;;;;21.70;55.20;;;;;;5073561;28;20029;-49
2022/05/09 10:19:51;;;;;;;;;;;21.60;54.50;;;;;;5091886;28;19924;-51
2022/05/09 10:25:24;;;;;;;;;;;21.70;55.60;;;;;;5090091;28;19985;-52
2022/05/09 10:28:03;;;;;;;;;;;22.00;56.60;;;;;;5091530;28;19920;-49
2022/05/09 10:30:38;;;;;;;;;;;22.00;55.90;;;;;;5088096;28;19938;-53
2022/05/09 10:33:09;;;;;;;;;;;22.20;55.80;;;;;;5092560;28;20364;-48
2022/05/09 10:35:40;;;;;;;;;;;22.20;59.00;;;;;;5089934;28;19924;-52
2022/05/09 10:38:11;;;;;;;;;;;22.20;56.80;;;;;;5091349;28;20289;-49
2022/05/09 10:40:40;;;;;;;;;;;22.30;55.10;;;;;;5070060;28;19924;-51
2022/05/09 10:43:08;;;;;;;;;;;22.30;53.80;;;;;;5087461;28;19985;-52
2022/05/09 10:45:38;;;;;;;;;;;22.40;55.00;;;;;;5083876;28;19948;-49
2022/05/09 10:48:16;;;;;;;;;;;22.60;55.30;;;;;;5090785;28;19928;-53
2022/05/09 10:50:44;;;;;;;;;;;22.70;56.00;;;;;;5092575;28;19932;-50
2022/05/09 10:53:28;;;;;;;;;;;22.80;57.70;;;;;;5074096;28;19924;-49
2022/05/09 10:56:13;;;;;;;;;;;22.80;57.70;;;;;;5091755;28;19924;-52
2022/05/09 10:59:01;;;;;;;;;;;22.70;54.40;;;;;;5092604;28;19935;-52
2022/05/09 11:01:45;;;;;;;;;;;23.00;57.10;;;;;;5077086;28;19932;-49
2022/05/09 11:04:13;;;;;;;;;;;23.00;54.30;;;;;;5087928;28;19931;-54
2022/05/09 11:06:41;;;;;;;;;;;23.10;54.90;;;;;;5069047;28;19954;-53
2022/05/09 11:09:16;;;;;;;;;;;23.00;53.20;;;;;;5092411;28;20014;-53
2022/05/09 11:11:53;;;;;;;;;;;23.10;53.90;;;;;;5091124;28;19939;-53
2022/05/09 11:14:34;;;;;;;;;;;23.10;52.70;;;;;;5091960;28;20399;-54
2022/05/09 11:17:13;;;;;;;;;;;23.10;54.30;;;;;;5078705;28;20596;-53
2022/05/09 11:19:39;;;;;;;;;;;23.10;52.40;;;;;;5090683;28;19955;-54
2022/05/09 11:22:12;;;;;;;;;;;23.30;54.10;;;;;;5090033;28;19940;-55
2022/05/09 11:24:37;;;;;;;;;;;23.30;53.40;;;;;;5091288;28;19993;-52
2022/05/09 11:27:12;;;;;;;;;;;23.10;52.40;;;;;;5091389;28;20425;-52
2022/05/09 11:30:01;;;;;;;;;;;23.10;54.00;;;;;;5091578;28;20279;-52
2022/05/09 11:32:35;;;;;;;;;;;23.30;55.20;;;;;;5086841;28;19931;-54
2022/05/09 11:35:34;;;;;;;;;;;23.40;54.00;;;;;;5081394;28;19932;-52
2022/05/09 11:38:11;;;;;;;;;;;23.20;52.60;;;;;;5007070;28;19932;-53
2022/05/09 11:40:45;;;;;;;;;;;23.50;54.00;;;;;;5084207;28;19939;-53
2022/05/09 11:43:32;;;;;;;;;;;22.80;50.90;;;;;;5087960;28;20120;-54
2022/05/09 11:46:16;;;;;;;;;;;23.10;53.60;;;;;;5081976;28;20007;-53
2022/05/09 11:48:41;;;;;;;;;;;23.40;53.40;;;;;;5086616;28;19985;-53
2022/05/09 11:51:26;;;;;;;;;;;23.50;56.80;;;;;;5089706;28;19928;-54
2022/05/09 11:53:56;;;;;;;;;;;23.60;55.60;;;;;;5089354;28;19959;-54
2022/05/09 11:56:22;;;;;;;;;;;23.70;55.40;;;;;;5094786;28;20267;-54
2022/05/09 11:58:48;;;;;;;;;;;23.70;55.80;;;;;;5094983;28;19931;-54
2022/05/09 12:01:14;;;;;;;;;;;23.80;57.70;;;;;;5094834;28;19969;-54
2022/05/09 12:03:39;;;;;;;;;;;23.90;55.10;;;;;;5084426;28;19928;-52
2022/05/09 12:06:05;;;;;;;;;;;24.00;57.80;;;;;;5085320;28;19925;-52
2022/05/09 12:08:44;;;;;;;;;;;24.20;55.20;;;;;;5090562;28;19924;-54
2022/05/09 12:11:16;;;;;;;;;;;24.30;55.20;;;;;;5082021;28;20389;-54
2022/05/09 12:13:41;;;;;;;;;;;24.30;54.20;;;;;;5094280;28;19924;-54
2022/05/09 12:16:07;;;;;;;;;;;24.20;52.70;;;;;;5095346;28;19924;-54
2022/05/09 12:18:51;;;;;;;;;;;24.30;56.40;;;;;;5074950;28;19924;-54
2022/05/09 12:21:19;;;;;;;;;;;24.10;56.40;;;;;;5094118;28;20413;-54
2022/05/09 12:23:50;;;;;;;;;;;23.90;53.50;;;;;;5093718;28;20415;-54
2022/05/09 12:26:29;;;;;;;;;;;24.10;54.90;;;;;;5090045;28;19931;-52
2022/05/09 12:29:15;;;;;;;;;;;23.90;54.20;;;;;;5094016;28;20419;-53
2022/05/09 12:31:41;;;;;;;;;;;24.10;56.00;;;;;;5085267;28;19940;-50
2022/05/09 12:34:08;;;;;;;;;;;24.20;54.00;;;;;;5092769;28;19924;-54
2022/05/09 12:36:35;;;;;;;;;;;24.30;54.70;;;;;;5093342;28;20239;-51
2022/05/09 12:39:02;;;;;;;;;;;24.30;55.20;;;;;;5094392;28;19931;-55
2022/05/09 12:41:39;;;;;;;;;;;24.40;54.40;;;;;;5095230;28;20409;-55
2022/05/09 12:44:07;;;;;;;;;;;24.30;54.30;;;;;;5094694;28;19924;-55
2022/05/09 12:46:44;;;;;;;;;;;24.50;54.00;;;;;;5094012;28;19924;-55
2022/05/09 12:49:10;;;;;;;;;;;24.40;53.20;;;;;;5091734;28;19930;-54
2022/05/09 12:51:43;;;;;;;;;;;24.50;55.80;;;;;;5093810;28;20344;-55
2022/05/09 12:54:09;;;;;;;;;;;24.70;53.80;;;;;;5092950;28;20235;-55
2022/05/09 12:56:45;;;;;;;;;;;24.70;51.30;;;;;;5087026;28;21275;-53
2022/05/09 12:59:11;;;;;;;;;;;24.80;54.50;;;;;;5093138;28;19924;-52
2022/05/09 13:01:41;;;;;;;;;;;25.00;51.40;;;;;;5095100;28;19967;-54
2022/05/09 13:04:16;;;;;;;;;;;24.70;54.70;;;;;;5092712;28;19940;-55
2022/05/09 13:06:48;;;;;;;;;;;24.90;52.20;;;;;;5092538;28;19970;-55
2022/05/09 13:09:14;;;;;;;;;;;25.00;56.00;;;;;;5074459;28;19968;-54
2022/05/09 13:11:40;;;;;;;;;;;24.80;61.70;;;;;;5091970;28;20297;-54
2022/05/09 13:14:06;;;;;;;;;;;24.50;59.60;;;;;;5092873;28;19924;-54
2022/05/09 13:16:33;;;;;;;;;;;24.60;51.50;;;;;;5093686;28;19924;-55
2022/05/09 13:18:59;;;;;;;;;;;24.80;53.50;;;;;;5084895;28;19924;-54
2022/05/09 13:21:31;;;;;;;;;;;24.80;50.50;;;;;;5093381;28;20290;-54
2022/05/09 13:23:57;;;;;;;;;;;24.90;50.90;;;;;;5089354;28;19932;-55
2022/05/09 13:26:24;;;;;;;;;;;25.10;59.40;;;;;;5077061;28;19929;-53
2022/05/09 13:29:09;;;;;;;;;;;25.20;50.60;;;;;;5063425;28;19924;-54
2022/05/09 13:31:45;;;;;;;;;;;25.20;51.10;;;;;;5074994;28;20351;-55
2022/05/09 13:34:22;;;;;;;;;;;25.00;49.80;;;;;;5088386;28;19958;-55
2022/05/09 13:36:47;;;;;;;;;;;25.20;49.70;;;;;;5087784;28;20124;-55
2022/05/09 13:39:28;;;;;;;;;;;25.20;50.20;;;;;;5074674;28;19925;-55
2022/05/09 13:41:54;;;;;;;;;;;25.10;49.40;;;;;;5093902;28;19947;-55
2022/05/09 13:44:21;;;;;;;;;;;25.10;47.30;;;;;;5093795;28;19924;-55
2022/05/09 13:46:47;;;;;;;;;;;25.20;49.20;;;;;;5090604;28;19924;-54
2022/05/09 13:49:14;;;;;;;;;;;25.30;50.90;;;;;;5084370;28;20041;-55
2022/05/09 13:51:41;;;;;;;;;;;25.30;48.20;;;;;;5078781;28;20410;-56
2022/05/09 13:54:07;;;;;;;;;;;25.30;48.40;;;;;;5087425;28;20401;-54
2022/05/09 13:56:34;;;;;;;;;;;25.40;49.80;;;;;;5088243;28;19955;-56
2022/05/09 13:59:16;;;;;;;;;;;25.50;49.00;;;;;;5069524;28;20374;-55
2022/05/09 14:01:43;;;;;;;;;;;25.60;50.50;;;;;;5086622;28;19924;-56
2022/05/09 14:04:12;;;;;;;;;;;25.70;50.70;;;;;;5088913;28;19931;-56
2022/05/09 14:06:37;;;;;;;;;;;25.60;47.40;;;;;;5085891;28;19934;-55
2022/05/09 14:09:05;;;;;;;;;;;25.50;49.70;;;;;;5088329;28;19924;-55
2022/05/09 14:11:35;;;;;;;;;;;25.50;48.30;;;;;;5089253;28;19931;-55
2022/05/09 14:14:02;;;;;;;;;;;25.60;49.20;;;;;;5089874;28;19924;-56
2022/05/09 14:16:35;;;;;;;;;;;25.70;50.70;;;;;;5088859;28;19932;-55
2022/05/09 14:19:04;;;;;;;;;;;25.80;49.30;;;;;;5088446;28;20370;-53
2022/05/09 14:21:36;;;;;;;;;;;25.70;46.80;;;;;;5087270;28;19925;-55
2022/05/09 14:24:02;;;;;;;;;;;25.40;46.50;;;;;;5068984;28;19924;-53
2022/05/09 14:29:40;;;;;;;;;;;25.70;49.40;;;;;;5088554;28;20069;-51
2022/05/09 14:32:06;;;;;;;;;;;25.70;49.00;;;;;;5093059;28;20255;-54
2022/05/09 14:34:39;;;;;;;;;;;25.80;49.20;;;;;;5092883;28;19924;-55
2022/05/09 14:37:34;;;;;;;;;;;25.80;48.00;;;;;;5092472;28;19959;-54
2022/05/09 14:40:05;;;;;;;;;;;25.80;50.10;;;;;;5074336;28;19924;-53
2022/05/09 14:42:35;;;;;;;;;;;25.80;48.20;;;;;;5092262;28;19977;-54